createdAt,value
2019-04-07T00:00:34.304Z,27.7
2019-04-07T00:05:37.896Z,23.7
2019-04-07T00:10:22.877Z,22.8
2019-04-07T00:15:17.396Z,29.5
2019-04-07T00:20:19.856Z,27.9
2019-04-07T00:25:43.075Z,24.9
2019-04-07T00:30:20.359Z,25.6
2019-04-07T00:35:33.657Z,24.1
2019-04-07T00:40:47.149Z,26.6
2019-04-07T00:45:37.943Z,28
2019-04-07T00:50:24.104Z,25.8
2019-04-07T00:55:23.104Z,18.4
2019-04-07T01:00:20.173Z,26.7
2019-04-07T01:05:55.357Z,27
2019-04-07T01:10:18.296Z,26.6
2019-04-07T01:15:33.969Z,27.3
2019-04-07T01:20:39.130Z,19.2
2019-04-07T01:25:33.668Z,26.5
2019-04-07T01:30:45.772Z,24.6
2019-04-07T01:35:22.946Z,27.6
2019-04-07T01:40:39.001Z,26.8
2019-04-07T01:45:33.308Z,28.2
2019-04-07T01:50:34.891Z,27.9
2019-04-07T01:55:46.468Z,23.7
2019-04-07T02:00:21.562Z,28.4
2019-04-07T02:05:39.687Z,23.6
2019-04-07T02:10:36.358Z,19.6
2019-04-07T02:15:25.160Z,28.6
2019-04-07T02:20:25.723Z,27.5
2019-04-07T02:25:27.261Z,21.9
2019-04-07T02:30:31.490Z,22.7
2019-04-07T02:35:45.005Z,29.7
2019-04-07T02:40:23.700Z,27
2019-04-07T02:45:32.193Z,18.7
2019-04-07T02:50:34.823Z,28.3
2019-04-07T02:55:35.477Z,22.4
2019-04-07T03:00:22.408Z,27.7
2019-04-07T03:05:43.516Z,24.3
2019-04-07T03:10:26.599Z,28
2019-04-07T03:15:34.868Z,28
2019-04-07T03:20:19.053Z,30.8
2019-04-07T03:25:28.075Z,28.1
2019-04-07T03:30:20.576Z,22.1
2019-04-07T03:35:47.349Z,28.9
2019-04-07T03:40:49.738Z,24.5
2019-04-07T03:45:39.215Z,27.9
2019-04-07T03:50:42.988Z,28.6
2019-04-07T03:55:24.425Z,21
2019-04-07T04:00:55.091Z,26.7
2019-04-07T04:05:58.885Z,18.8
2019-04-07T04:10:36.599Z,27.3
2019-04-07T04:15:43.538Z,24.8
2019-04-07T04:25:26.172Z,22.6
2019-04-07T04:30:33.991Z,26.3
2019-04-07T04:35:49.000Z,25.3
2019-04-07T04:45:38.618Z,22.6
2019-04-07T04:50:43.987Z,26.2
2019-04-07T05:00:38.466Z,26.7
2019-04-07T05:05:30.348Z,27
2019-04-07T05:10:53.234Z,24.8
2019-04-07T05:15:18.895Z,26.8
2019-04-07T05:20:30.917Z,24
2019-04-07T05:25:20.867Z,27.1
2019-04-07T05:30:37.975Z,27.2
2019-04-07T05:35:49.554Z,24.8
2019-04-07T05:40:32.228Z,23.5
2019-04-07T05:45:18.390Z,23
2019-04-07T05:50:18.218Z,27.9
2019-04-07T05:55:25.138Z,23.1
2019-04-07T06:00:24.118Z,21
2019-04-07T06:05:21.228Z,28.1
2019-04-07T06:10:30.656Z,26.2
2019-04-07T06:20:25.797Z,29.5
2019-04-07T06:25:57.246Z,27.2
2019-04-07T06:30:47.405Z,26.6
2019-04-07T06:35:24.018Z,21.2
2019-04-07T06:40:57.833Z,33.1
2019-04-07T06:45:31.620Z,25.2
2019-04-07T06:50:18.170Z,26.6
2019-04-07T06:55:17.774Z,34.7
2019-04-07T07:00:25.804Z,24.6
2019-04-07T07:05:24.349Z,33.9
2019-04-07T07:10:36.901Z,34.6
2019-04-07T07:15:22.225Z,35.3
2019-04-07T07:20:34.902Z,26.7
2019-04-07T07:25:32.420Z,35
2019-04-07T07:30:21.119Z,24.8
2019-04-07T07:35:19.006Z,33.9
2019-04-07T07:40:40.738Z,26.9
2019-04-07T07:45:25.002Z,33.8
2019-04-07T07:50:20.647Z,31.1
2019-04-07T07:55:24.167Z,33
2019-04-07T08:00:28.700Z,31.5
2019-04-07T08:05:31.629Z,20.8
2019-04-07T08:10:31.382Z,31.6
2019-04-07T08:15:36.141Z,30.4
2019-04-07T08:20:24.613Z,31.6
2019-04-07T08:40:28.522Z,25.6
2019-04-07T09:05:26.677Z,25
2019-04-07T09:15:44.041Z,26.9
2019-04-07T09:20:18.800Z,24
2019-04-07T09:26:05.585Z,28.8
2019-04-07T11:50:57.594Z,9.3
2019-04-07T12:15:58.308Z,10.6
2019-04-07T12:21:02.280Z,8.6
2019-04-07T12:25:17.635Z,10.5
2019-04-07T12:30:21.256Z,9.6
2019-04-07T12:35:21.309Z,8.4
2019-04-07T12:50:22.666Z,8.2
2019-04-07T13:01:13.067Z,10.2
2019-04-07T13:05:18.563Z,9.1
2019-04-07T13:11:38.410Z,11.7
2019-04-07T13:41:37.050Z,9.2
2019-04-07T13:45:22.821Z,10.2
2019-04-07T13:55:44.183Z,9
2019-04-07T14:11:32.610Z,9.6
2019-04-07T14:30:54.180Z,10.4
2019-04-07T15:10:52.989Z,5.3
2019-04-07T15:15:22.504Z,7.2
2019-04-07T15:51:37.466Z,6.4
2019-04-07T16:06:49.987Z,7.5
2019-04-07T16:10:42.481Z,6.7
2019-04-07T16:48:00.516Z,5.2
2019-04-07T16:51:19.003Z,3.7
2019-04-07T16:55:55.182Z,4.9
2019-04-07T17:15:28.507Z,7.7
2019-04-07T17:20:42.664Z,6.3
2019-04-07T17:25:22.950Z,5.5
2019-04-07T17:30:26.137Z,2.6
2019-04-07T17:35:52.124Z,10.7
2019-04-07T17:40:18.824Z,11
2019-04-07T17:46:02.547Z,10.7
2019-04-07T18:10:26.682Z,6.1
2019-04-07T18:15:19.403Z,4
2019-04-07T18:20:39.446Z,6.9
2019-04-07T18:25:18.037Z,7.7
2019-04-07T18:30:53.816Z,10.5
2019-04-07T18:35:32.858Z,10.8
2019-04-07T18:40:35.107Z,8.5
2019-04-07T18:45:18.934Z,5.8
2019-04-07T18:50:22.016Z,12
2019-04-07T19:00:17.830Z,11.7
2019-04-07T19:05:23.150Z,11.6
2019-04-07T19:10:25.612Z,10.8
2019-04-07T19:15:36.260Z,11.6
2019-04-07T19:20:23.559Z,11.2
2019-04-07T19:25:20.278Z,11.1
2019-04-07T19:30:26.818Z,10.5
2019-04-07T19:35:22.580Z,7
2019-04-07T19:40:18.789Z,10.6
2019-04-07T19:45:28.497Z,6.5
2019-04-07T19:50:21.392Z,10.3
2019-04-07T19:55:26.724Z,10.8
2019-04-07T20:00:51.868Z,5.5
2019-04-07T20:06:16.994Z,10.6
2019-04-07T20:10:24.444Z,11
2019-04-07T20:15:29.235Z,5.6
2019-04-07T20:20:21.966Z,11.5
2019-04-07T20:25:40.971Z,12.1
2019-04-07T20:30:19.024Z,5.3
2019-04-07T20:35:32.607Z,10.8
2019-04-07T21:43:56.802Z,11.6
2019-04-07T22:52:41.593Z,11.7
2019-04-07T22:56:14.115Z,6.8
2019-04-07T23:01:11.097Z,12.2
2019-04-07T23:05:35.760Z,11.9
2019-04-07T23:15:18.707Z,12
2019-04-07T23:21:17.225Z,12.4
2019-04-07T23:25:44.321Z,8.6
2019-04-07T23:31:00.332Z,12.9
2019-04-07T23:41:05.308Z,13.2
2019-04-07T23:45:52.949Z,7.2
